Time;durP1;ratioP1;P1;durP2;ratioP2;P2;SDS_P1;SDS_P2;PMS_P1;PMS_P2;Temp;Humidity;BMP_temperature;BMP_pressure;BME280_temperature;BME280_humidity;BME280_pressure;Samples;Min_cycle;Max_cycle;Signal;HPM_P1;HPM_P2
2021/06/26 00:02:13;;;;;;;0.90;0.90;;;25.70;41.90;;;;;;4955654;28;20236;-47
2021/06/26 00:04:40;;;;;;;2.17;1.10;;;25.70;41.90;;;;;;4958770;28;20290;-45
2021/06/26 00:07:06;;;;;;;1.20;1.00;;;25.70;42.00;;;;;;4953895;29;20284;-45
2021/06/26 00:09:33;;;;;;;1.58;0.90;;;25.60;41.90;;;;;;4954203;28;20292;-45
2021/06/26 00:11:59;;;;;;;1.85;0.90;;;25.60;41.90;;;;;;4954699;28;20211;-44
2021/06/26 00:14:25;;;;;;;1.70;1.10;;;25.70;42.00;;;;;;4945262;28;20216;-44
2021/06/26 00:16:52;;;;;;;1.08;0.85;;;25.60;41.90;;;;;;4943579;29;20197;-49
2021/06/26 00:19:18;;;;;;;1.52;1.30;;;25.70;42.00;;;;;;4954927;28;20215;-46
2021/06/26 00:21:45;;;;;;;2.08;1.00;;;25.60;41.90;;;;;;4958125;28;20224;-44
2021/06/26 00:24:11;;;;;;;1.08;0.90;;;25.60;41.90;;;;;;4956075;28;20252;-44
2021/06/26 00:26:38;;;;;;;2.05;1.00;;;25.60;41.90;;;;;;4953472;29;20666;-44
2021/06/26 00:29:04;;;;;;;1.10;1.02;;;25.60;41.90;;;;;;4953719;28;20283;-44
2021/06/26 00:31:31;;;;;;;0.95;0.80;;;25.70;42.70;;;;;;4956336;28;20211;-45
2021/06/26 00:33:57;;;;;;;1.50;1.00;;;25.70;42.10;;;;;;4958407;28;20237;-44
2021/06/26 00:36:24;;;;;;;1.10;1.00;;;25.70;42.10;;;;;;4953999;28;20348;-46
2021/06/26 00:38:50;;;;;;;0.98;0.98;;;25.60;42.00;;;;;;4954052;28;20671;-45
2021/06/26 00:41:17;;;;;;;0.90;0.90;;;25.60;42.00;;;;;;4953467;28;20572;-48
2021/06/26 00:43:43;;;;;;;1.83;1.10;;;25.60;42.00;;;;;;4952895;28;20763;-45
2021/06/26 00:46:10;;;;;;;1.17;0.98;;;25.70;42.10;;;;;;4953535;28;20569;-46
2021/06/26 00:48:36;;;;;;;1.20;1.10;;;25.70;42.10;;;;;;4953471;28;20296;-49
2021/06/26 00:51:03;;;;;;;1.20;1.05;;;25.70;42.10;;;;;;4954203;28;20215;-49
2021/06/26 00:53:29;;;;;;;1.92;1.25;;;25.60;42.00;;;;;;4953943;28;20323;-48
2021/06/26 00:55:55;;;;;;;1.15;1.10;;;25.70;42.10;;;;;;4954521;28;20207;-45
2021/06/26 00:58:22;;;;;;;2.83;1.40;;;25.70;42.10;;;;;;4953155;28;20220;-46
2021/06/26 01:00:48;;;;;;;1.20;1.10;;;25.70;42.10;;;;;;4954988;28;20681;-48
2021/06/26 01:03:15;;;;;;;1.58;1.20;;;25.70;42.10;;;;;;4953117;28;20596;-46
2021/06/26 01:05:41;;;;;;;0.93;0.90;;;25.60;42.10;;;;;;4953438;28;20205;-45
2021/06/26 01:08:08;;;;;;;1.00;0.90;;;25.60;42.20;;;;;;4952811;28;20341;-50
2021/06/26 01:10:34;;;;;;;1.23;1.00;;;25.70;42.20;;;;;;4953386;29;20236;-47
2021/06/26 01:13:01;;;;;;;1.95;1.00;;;25.60;42.20;;;;;;4952637;28;20880;-45
2021/06/26 01:15:27;;;;;;;1.90;1.20;;;25.70;42.30;;;;;;4960229;28;20220;-48
2021/06/26 01:17:54;;;;;;;1.00;1.00;;;25.70;42.30;;;;;;4955509;28;20295;-50
2021/06/26 01:20:20;;;;;;;1.60;0.98;;;25.70;42.30;;;;;;4960112;28;20585;-49
2021/06/26 01:22:50;;;;;;;1.73;1.00;;;25.60;42.30;;;;;;4957806;28;20255;-48
2021/06/26 01:25:17;;;;;;;1.40;1.30;;;25.70;42.30;;;;;;4956217;28;20209;-48
2021/06/26 01:27:43;;;;;;;0.95;0.93;;;25.60;42.30;;;;;;4953068;28;20212;-48
2021/06/26 01:30:10;;;;;;;1.65;1.02;;;25.70;42.40;;;;;;4955785;28;20288;-47
2021/06/26 01:32:36;;;;;;;1.00;0.95;;;25.60;42.30;;;;;;4963373;28;20335;-48
2021/06/26 01:35:02;;;;;;;0.85;0.82;;;25.70;42.40;;;;;;4959426;28;20201;-51
2021/06/26 01:37:29;;;;;;;1.02;0.90;;;25.60;42.30;;;;;;4952683;29;20201;-50
2021/06/26 01:39:56;;;;;;;1.35;1.25;;;25.70;42.40;;;;;;4953205;28;20245;-51
2021/06/26 01:42:22;;;;;;;1.55;1.23;;;25.60;42.30;;;;;;4960128;28;20323;-48
2021/06/26 01:44:49;;;;;;;0.88;0.82;;;25.60;42.30;;;;;;4960359;28;20288;-50
2021/06/26 01:47:15;;;;;;;1.15;1.05;;;25.70;42.40;;;;;;4959604;28;20211;-53
2021/06/26 01:49:42;;;;;;;1.60;1.10;;;25.60;42.30;;;;;;4957398;28;20572;-48
2021/06/26 01:52:08;;;;;;;1.95;1.08;;;25.60;42.30;;;;;;4952160;29;20339;-45
2021/06/26 01:54:34;;;;;;;1.05;0.90;;;25.60;42.40;;;;;;4953237;28;20206;-47
2021/06/26 01:57:01;;;;;;;1.00;1.00;;;25.60;42.30;;;;;;4954482;28;20410;-45
2021/06/26 01:59:27;;;;;;;2.05;1.15;;;25.60;42.40;;;;;;4952813;29;20627;-48
2021/06/26 02:01:54;;;;;;;1.40;1.25;;;25.60;42.40;;;;;;4955813;28;20224;-47
2021/06/26 02:04:20;;;;;;;1.00;1.00;;;25.60;42.40;;;;;;4950940;28;20651;-47
2021/06/26 02:06:47;;;;;;;1.27;1.10;;;25.60;42.40;;;;;;4951850;28;20212;-45
2021/06/26 02:09:13;;;;;;;1.17;1.10;;;25.70;42.50;;;;;;4950626;28;20299;-47
2021/06/26 02:11:40;;;;;;;1.20;1.10;;;25.70;42.50;;;;;;4952353;28;20201;-45
2021/06/26 02:14:06;;;;;;;1.10;1.00;;;25.60;42.40;;;;;;4950978;28;20204;-45
2021/06/26 02:16:33;;;;;;;1.13;0.90;;;25.60;42.40;;;;;;4949124;28;20297;-46
2021/06/26 02:18:59;;;;;;;1.02;1.02;;;25.70;42.50;;;;;;4952077;28;20207;-45
2021/06/26 02:21:25;;;;;;;1.20;1.10;;;25.60;42.40;;;;;;4951892;29;20292;-45
2021/06/26 02:23:52;;;;;;;1.10;1.00;;;25.70;42.50;;;;;;4952035;28;20244;-46
2021/06/26 02:26:18;;;;;;;0.90;0.90;;;25.60;42.50;;;;;;4955152;28;20277;-46
2021/06/26 02:28:45;;;;;;;1.10;0.95;;;25.60;42.50;;;;;;4971700;28;20208;-45
2021/06/26 02:31:11;;;;;;;1.52;1.20;;;25.70;42.60;;;;;;4960705;28;20198;-46
2021/06/26 02:33:38;;;;;;;1.05;0.95;;;25.60;42.50;;;;;;4951374;28;20931;-45
2021/06/26 02:36:04;;;;;;;1.17;1.10;;;25.60;42.50;;;;;;4951389;28;20367;-45
2021/06/26 02:38:31;;;;;;;1.30;1.20;;;25.60;42.60;;;;;;4959470;28;20209;-46
2021/06/26 02:40:57;;;;;;;1.17;1.10;;;25.60;42.60;;;;;;4952498;28;20420;-47
2021/06/26 02:43:24;;;;;;;0.93;0.90;;;25.60;42.60;;;;;;4950834;28;20244;-45
2021/06/26 02:45:50;;;;;;;2.00;0.98;;;25.60;42.60;;;;;;4951292;28;20296;-45
2021/06/26 02:48:16;;;;;;;0.90;0.90;;;25.70;42.60;;;;;;4951579;29;20197;-45
2021/06/26 02:50:43;;;;;;;1.33;1.10;;;25.60;42.60;;;;;;4952525;28;20656;-45
2021/06/26 02:53:10;;;;;;;1.23;1.10;;;25.60;43.30;;;;;;4952084;28;20659;-46
2021/06/26 02:55:36;;;;;;;1.13;1.00;;;25.60;42.60;;;;;;4956778;28;20208;-46
2021/06/26 02:58:03;;;;;;;0.95;0.95;;;25.60;42.60;;;;;;4951906;29;20213;-46
2021/06/26 03:00:29;;;;;;;1.65;1.00;;;25.60;42.70;;;;;;4958207;28;20287;-47
2021/06/26 03:02:56;;;;;;;1.10;1.00;;;25.60;42.70;;;;;;4951356;29;20245;-49
2021/06/26 03:05:22;;;;;;;1.08;1.02;;;25.60;42.70;;;;;;4950647;28;20245;-47
2021/06/26 03:07:49;;;;;;;1.02;0.93;;;25.60;42.70;;;;;;4955596;28;20206;-47
2021/06/26 03:10:15;;;;;;;1.33;1.00;;;25.60;42.80;;;;;;4952647;28;20549;-46
2021/06/26 03:12:42;;;;;;;1.05;1.00;;;25.60;42.80;;;;;;4951616;28;20303;-47
2021/06/26 03:15:08;;;;;;;1.85;1.10;;;25.60;42.80;;;;;;4952014;28;20244;-47
2021/06/26 03:17:34;;;;;;;1.00;1.00;;;25.60;42.80;;;;;;4951138;28;20210;-47
2021/06/26 03:20:01;;;;;;;1.10;1.00;;;25.60;42.80;;;;;;4951715;28;20223;-48
2021/06/26 03:22:27;;;;;;;1.52;1.33;;;25.60;42.80;;;;;;4962742;28;20247;-46
2021/06/26 03:24:54;;;;;;;1.52;1.23;;;25.60;42.80;;;;;;4951211;28;20324;-46
2021/06/26 03:27:20;;;;;;;1.17;1.10;;;25.60;42.90;;;;;;4950349;28;20201;-47
2021/06/26 03:29:47;;;;;;;0.95;0.95;;;25.60;42.90;;;;;;4951437;28;20213;-46
2021/06/26 03:32:13;;;;;;;1.20;1.10;;;25.60;42.80;;;;;;4961917;28;20701;-46
2021/06/26 03:34:39;;;;;;;1.10;0.90;;;25.60;43.00;;;;;;4954846;28;20645;-47
2021/06/26 03:37:06;;;;;;;1.13;1.10;;;25.60;43.80;;;;;;4951389;28;20209;-47
2021/06/26 03:39:32;;;;;;;1.48;1.30;;;25.60;43.10;;;;;;4955099;29;20205;-46
2021/06/26 03:41:59;;;;;;;1.15;1.02;;;25.60;43.10;;;;;;4960259;28;20718;-48
2021/06/26 03:44:25;;;;;;;1.38;0.90;;;25.60;43.10;;;;;;4954314;28;20621;-46
2021/06/26 03:46:52;;;;;;;1.10;0.98;;;25.60;43.00;;;;;;4954092;28;20288;-46
2021/06/26 03:49:18;;;;;;;1.50;1.00;;;25.60;43.00;;;;;;4954392;28;20284;-48
2021/06/26 03:51:45;;;;;;;1.42;0.98;;;25.60;43.00;;;;;;4965952;28;20227;-46
2021/06/26 03:54:11;;;;;;;1.20;1.10;;;25.60;43.00;;;;;;4965608;28;20236;-48
2021/06/26 03:56:38;;;;;;;1.55;1.00;;;25.60;43.00;;;;;;4954503;28;20213;-51
2021/06/26 03:59:04;;;;;;;0.98;0.98;;;25.70;43.10;;;;;;4954948;28;20304;-52
2021/06/26 04:01:31;;;;;;;1.65;0.90;;;25.60;42.90;;;;;;4956655;28;20221;-49
2021/06/26 04:03:57;;;;;;;1.10;1.00;;;25.60;42.90;;;;;;4956590;28;20315;-52
2021/06/26 04:06:23;;;;;;;1.20;1.10;;;25.60;42.90;;;;;;4955367;28;20627;-53
2021/06/26 04:08:50;;;;;;;1.27;1.00;;;25.60;42.90;;;;;;4955927;28;20634;-48
2021/06/26 04:11:16;;;;;;;1.20;1.10;;;25.60;42.90;;;;;;4957399;28;20551;-48
2021/06/26 04:13:43;;;;;;;1.70;1.02;;;25.60;42.90;;;;;;4954854;29;20229;-48
2021/06/26 04:16:10;;;;;;;1.27;1.02;;;25.60;42.80;;;;;;4949632;28;20201;-52
2021/06/26 04:18:36;;;;;;;1.15;1.05;;;25.60;42.90;;;;;;4954887;28;20345;-46
2021/06/26 04:21:02;;;;;;;1.30;1.20;;;25.60;42.80;;;;;;4955435;28;20209;-47
2021/06/26 04:23:29;;;;;;;1.15;0.90;;;25.60;42.80;;;;;;4954909;29;20241;-51
2021/06/26 04:25:55;;;;;;;1.20;1.10;;;25.60;42.80;;;;;;4952183;28;20296;-49
2021/06/26 04:28:22;;;;;;;1.88;1.10;;;25.60;42.80;;;;;;4955142;28;20656;-49
2021/06/26 04:30:48;;;;;;;1.25;1.10;;;25.60;42.80;;;;;;4955272;28;20296;-47
2021/06/26 04:33:15;;;;;;;1.20;1.10;;;25.60;42.80;;;;;;4957224;28;20243;-47
2021/06/26 04:35:41;;;;;;;1.23;1.13;;;25.60;42.80;;;;;;4956952;28;20576;-48
2021/06/26 04:38:08;;;;;;;0.80;0.80;;;25.60;42.80;;;;;;4965017;28;20409;-48
2021/06/26 04:40:34;;;;;;;1.10;1.00;;;25.60;42.70;;;;;;4954678;28;20284;-52
2021/06/26 04:43:01;;;;;;;1.05;0.95;;;25.60;42.80;;;;;;4954919;28;20250;-51
2021/06/26 04:45:27;;;;;;;1.15;1.05;;;25.60;42.80;;;;;;4954499;28;20296;-46
2021/06/26 04:47:53;;;;;;;1.10;1.00;;;25.70;42.90;;;;;;4953046;28;20213;-48
2021/06/26 04:50:20;;;;;;;1.10;1.00;;;25.60;42.80;;;;;;4954181;28;20201;-50
2021/06/26 04:52:46;;;;;;;1.25;1.02;;;25.60;42.80;;;;;;4954771;29;20235;-51
2021/06/26 04:55:13;;;;;;;1.20;0.90;;;25.70;42.90;;;;;;4954228;28;20209;-50
2021/06/26 04:57:39;;;;;;;2.33;1.52;;;25.60;42.80;;;;;;4954153;29;20701;-49
2021/06/26 05:00:06;;;;;;;1.88;1.10;;;25.70;42.90;;;;;;4953376;28;20221;-51
2021/06/26 05:02:32;;;;;;;2.03;1.02;;;25.60;42.80;;;;;;4953874;28;20585;-45
2021/06/26 05:04:59;;;;;;;1.10;1.00;;;25.60;42.80;;;;;;4954600;29;20274;-51
2021/06/26 05:07:25;;;;;;;1.60;1.10;;;25.70;42.90;;;;;;4953129;28;20670;-50
2021/06/26 05:09:52;;;;;;;2.25;0.90;;;25.70;42.90;;;;;;4952319;28;20567;-48
2021/06/26 05:12:18;;;;;;;1.15;0.90;;;25.70;42.90;;;;;;4952932;28;20396;-48
2021/06/26 05:14:45;;;;;;;1.13;1.02;;;25.70;42.90;;;;;;4954589;29;20344;-49
2021/06/26 05:17:11;;;;;;;1.23;1.10;;;25.60;42.80;;;;;;4953261;28;20617;-50
2021/06/26 05:19:38;;;;;;;1.42;0.90;;;25.60;42.80;;;;;;4950641;28;20299;-48
2021/06/26 05:22:04;;;;;;;1.40;1.00;;;25.70;42.70;;;;;;4952183;28;20317;-47
2021/06/26 05:24:30;;;;;;;2.65;1.20;;;25.60;42.70;;;;;;4952289;28;20255;-52
2021/06/26 05:26:57;;;;;;;1.20;1.10;;;25.60;42.80;;;;;;4951682;28;20205;-50
2021/06/26 05:29:23;;;;;;;2.83;1.15;;;25.70;43.00;;;;;;4952395;28;20308;-48
2021/06/26 05:31:50;;;;;;;1.48;0.73;;;25.70;43.00;;;;;;4953023;28;20225;-50
2021/06/26 05:34:16;;;;;;;1.25;1.08;;;25.70;43.10;;;;;;4952415;28;20205;-50
2021/06/26 05:36:43;;;;;;;3.53;1.30;;;25.70;43.10;;;;;;4952452;28;20629;-48
2021/06/26 05:39:09;;;;;;;2.05;1.20;;;25.70;43.10;;;;;;4952666;29;20231;-49
2021/06/26 05:41:36;;;;;;;3.05;1.10;;;25.70;43.10;;;;;;4952875;28;20245;-48
2021/06/26 05:44:02;;;;;;;1.98;1.20;;;25.70;43.10;;;;;;4939139;28;20240;-52
2021/06/26 05:46:29;;;;;;;4.13;1.55;;;25.70;43.00;;;;;;4952164;29;20288;-46
2021/06/26 05:48:55;;;;;;;3.88;1.30;;;25.70;43.00;;;;;;4951675;28;20280;-48
2021/06/26 05:51:22;;;;;;;3.00;1.38;;;25.70;43.10;;;;;;4954067;28;20308;-48
2021/06/26 05:53:49;;;;;;;6.13;2.70;;;25.70;43.00;;;;;;4950573;28;20212;-51
2021/06/26 05:56:15;;;;;;;4.28;3.70;;;25.70;42.30;;;;;;4946706;28;20662;-51
2021/06/26 05:58:42;;;;;;;4.60;4.18;;;25.60;40.40;;;;;;4951662;28;20626;-52
2021/06/26 06:01:10;;;;;;;4.22;3.83;;;25.50;39.60;;;;;;4955241;28;20228;-51
2021/06/26 06:03:37;;;;;;;4.30;3.90;;;25.40;39.70;;;;;;4953164;29;20568;-50
2021/06/26 06:06:03;;;;;;;4.00;3.45;;;25.40;39.30;;;;;;4952003;28;20209;-47
2021/06/26 06:08:30;;;;;;;3.80;3.20;;;25.40;39.70;;;;;;4953909;28;20247;-48
2021/06/26 06:10:56;;;;;;;3.40;3.10;;;25.40;39.60;;;;;;4951312;28;20648;-49
2021/06/26 06:13:23;;;;;;;3.70;3.40;;;25.40;39.60;;;;;;4951127;28;20204;-49
2021/06/26 06:15:49;;;;;;;3.40;3.10;;;25.40;39.70;;;;;;4962887;28;20295;-45
2021/06/26 06:18:16;;;;;;;2.90;2.60;;;25.40;39.60;;;;;;4950038;28;20208;-49
2021/06/26 06:20:42;;;;;;;3.72;3.42;;;25.50;39.70;;;;;;4950926;28;20198;-45
2021/06/26 06:23:09;;;;;;;3.25;2.95;;;25.50;39.40;;;;;;4944991;28;20240;-46
2021/06/26 06:25:35;;;;;;;3.38;3.00;;;25.50;39.30;;;;;;4952094;28;20217;-50
2021/06/26 06:28:02;;;;;;;3.17;2.92;;;25.50;39.30;;;;;;4950865;28;20296;-49
2021/06/26 06:30:28;;;;;;;3.50;3.20;;;25.50;39.30;;;;;;4952368;28;20613;-49
2021/06/26 06:32:55;;;;;;;3.53;3.22;;;25.40;39.20;;;;;;4952028;29;20533;-50
2021/06/26 06:35:21;;;;;;;3.35;3.10;;;25.50;39.30;;;;;;4951555;28;20295;-46
2021/06/26 06:37:48;;;;;;;3.30;3.00;;;25.50;39.30;;;;;;4947884;28;20316;-54
2021/06/26 06:40:14;;;;;;;3.00;2.80;;;25.50;39.30;;;;;;4949654;28;20268;-49
2021/06/26 06:42:41;;;;;;;3.60;3.30;;;25.50;39.30;;;;;;4948330;28;20255;-51
2021/06/26 06:45:08;;;;;;;3.47;3.17;;;25.50;39.30;;;;;;4944937;29;20221;-52
2021/06/26 06:47:34;;;;;;;3.95;3.53;;;25.50;39.30;;;;;;4937089;28;20208;-47
2021/06/26 06:50:01;;;;;;;3.58;3.28;;;25.50;39.30;;;;;;4952309;29;20201;-51
2021/06/26 06:52:27;;;;;;;4.97;3.97;;;25.50;39.30;;;;;;4947752;28;20225;-50
2021/06/26 06:54:54;;;;;;;4.57;3.60;;;25.50;39.30;;;;;;4949777;28;20209;-51
2021/06/26 06:57:23;;;;;;;3.63;3.33;;;25.50;39.30;;;;;;4950032;29;20213;-49
2021/06/26 06:59:49;;;;;;;4.00;3.60;;;25.60;39.40;;;;;;4952268;28;20242;-45
2021/06/26 07:02:16;;;;;;;3.80;3.50;;;25.60;39.40;;;;;;4956918;28;20225;-52
2021/06/26 07:04:42;;;;;;;3.53;3.22;;;25.50;39.30;;;;;;4939314;28;20344;-51
2021/06/26 07:07:09;;;;;;;4.30;3.55;;;25.50;39.30;;;;;;4947691;28;20213;-50
2021/06/26 07:09:35;;;;;;;3.70;3.40;;;25.50;39.30;;;;;;4950371;28;20658;-47
2021/06/26 07:12:02;;;;;;;3.78;3.47;;;25.50;39.30;;;;;;4945985;28;20233;-52
2021/06/26 07:14:28;;;;;;;3.60;3.30;;;25.60;39.40;;;;;;4940938;28;20205;-48
2021/06/26 07:16:55;;;;;;;4.32;3.92;;;25.50;39.30;;;;;;4951281;29;20389;-52
2021/06/26 07:19:23;;;;;;;4.43;2.92;;;25.50;39.30;;;;;;4953021;28;20201;-48
2021/06/26 07:21:51;;;;;;;3.63;3.30;;;25.60;39.30;;;;;;4952816;28;20638;-45
2021/06/26 07:24:17;;;;;;;3.22;2.92;;;25.60;39.40;;;;;;4960254;28;20316;-44
2021/06/26 07:26:44;;;;;;;3.40;3.10;;;25.60;39.40;;;;;;4951373;29;20196;-44
2021/06/26 07:29:10;;;;;;;4.68;3.70;;;25.60;39.30;;;;;;4952182;28;20216;-49
2021/06/26 07:31:37;;;;;;;3.33;3.03;;;25.60;39.40;;;;;;4945883;28;20264;-48
2021/06/26 07:34:03;;;;;;;3.40;3.10;;;25.60;39.40;;;;;;4948764;28;20265;-49
2021/06/26 07:36:30;;;;;;;4.55;3.25;;;25.60;39.40;;;;;;4950178;28;20213;-47
2021/06/26 07:38:56;;;;;;;4.00;3.53;;;25.60;39.40;;;;;;4951713;29;20375;-48
2021/06/26 07:41:23;;;;;;;3.70;3.40;;;25.60;39.40;;;;;;4949548;28;20229;-49
2021/06/26 07:43:49;;;;;;;4.25;3.85;;;25.60;39.40;;;;;;4950860;28;20315;-50
2021/06/26 07:46:18;;;;;;;3.83;3.53;;;25.60;39.40;;;;;;4954785;28;20619;-49
2021/06/26 07:48:44;;;;;;;5.07;3.80;;;25.60;39.40;;;;;;4947801;28;20197;-45
2021/06/26 07:51:11;;;;;;;3.55;3.25;;;25.60;39.40;;;;;;4947366;28;20280;-48
2021/06/26 07:53:37;;;;;;;4.25;2.95;;;25.60;39.40;;;;;;4952823;28;20209;-47
2021/06/26 07:56:04;;;;;;;4.78;3.20;;;25.60;39.40;;;;;;4950926;28;20288;-45
2021/06/26 07:58:30;;;;;;;3.78;3.20;;;25.60;39.60;;;;;;4952085;29;20209;-47
2021/06/26 08:00:57;;;;;;;3.38;3.08;;;25.60;40.20;;;;;;4950716;28;20231;-49
2021/06/26 08:03:23;;;;;;;3.25;2.95;;;25.60;40.00;;;;;;4952605;28;20213;-49
2021/06/26 08:05:50;;;;;;;4.80;3.33;;;25.60;40.00;;;;;;4951801;28;20205;-51
2021/06/26 08:08:16;;;;;;;3.80;3.45;;;25.60;40.20;;;;;;4951785;28;20201;-50
2021/06/26 08:10:43;;;;;;;4.05;3.20;;;25.60;40.20;;;;;;4952092;28;20227;-44
2021/06/26 08:13:09;;;;;;;3.42;2.97;;;25.70;40.40;;;;;;4956554;28;20646;-50
2021/06/26 08:15:36;;;;;;;4.30;3.13;;;25.70;40.30;;;;;;4965506;28;20209;-45
2021/06/26 08:18:03;;;;;;;5.38;3.30;;;25.70;40.30;;;;;;4952103;29;20690;-46
2021/06/26 08:20:29;;;;;;;3.25;2.95;;;25.70;40.30;;;;;;4952456;29;20389;-45
2021/06/26 08:22:55;;;;;;;3.60;3.30;;;25.70;40.30;;;;;;4953048;28;20291;-44
2021/06/26 08:25:22;;;;;;;3.03;2.58;;;25.70;40.40;;;;;;4945601;28;20234;-45
2021/06/26 08:27:48;;;;;;;3.22;2.92;;;25.70;40.40;;;;;;4936084;29;20301;-47
2021/06/26 08:30:15;;;;;;;3.30;3.00;;;25.60;40.30;;;;;;4936370;29;20759;-47
2021/06/26 08:32:42;;;;;;;3.15;2.95;;;25.70;40.40;;;;;;4942553;29;20581;-46
2021/06/26 08:35:09;;;;;;;3.40;3.10;;;25.70;40.50;;;;;;4953399;28;20524;-54
2021/06/26 08:37:36;;;;;;;2.83;2.63;;;25.70;40.50;;;;;;4953059;29;20791;-45
2021/06/26 08:40:02;;;;;;;2.60;2.40;;;25.70;40.80;;;;;;4954982;29;20215;-44
2021/06/26 08:42:29;;;;;;;6.20;3.00;;;25.70;40.70;;;;;;4953965;29;20223;-44
2021/06/26 08:44:55;;;;;;;3.83;3.03;;;25.70;40.60;;;;;;4956132;28;20916;-46
2021/06/26 08:47:22;;;;;;;2.90;2.70;;;25.70;40.50;;;;;;4954700;28;20292;-43
2021/06/26 08:49:48;;;;;;;2.95;2.65;;;25.70;40.50;;;;;;4952317;28;20236;-48
2021/06/26 08:52:14;;;;;;;2.88;2.67;;;25.70;40.40;;;;;;4950585;28;20304;-48
2021/06/26 08:54:41;;;;;;;3.30;2.90;;;25.70;41.30;;;;;;4955252;28;20291;-48
2021/06/26 08:57:07;;;;;;;3.60;2.53;;;25.70;41.20;;;;;;4951277;29;20650;-50
2021/06/26 08:59:34;;;;;;;4.05;2.90;;;25.80;41.60;;;;;;4953425;29;20209;-48
2021/06/26 09:02:01;;;;;;;4.25;3.10;;;25.70;41.50;;;;;;4955014;29;20328;-45
2021/06/26 09:04:27;;;;;;;4.13;3.15;;;25.70;41.30;;;;;;4955379;28;20232;-49
2021/06/26 09:06:54;;;;;;;2.72;2.53;;;25.80;41.30;;;;;;4954708;29;20204;-44
2021/06/26 09:09:20;;;;;;;3.78;2.78;;;25.80;41.20;;;;;;4954831;28;20209;-45
2021/06/26 09:11:47;;;;;;;3.33;3.03;;;25.70;41.20;;;;;;4946460;28;20225;-43
2021/06/26 09:14:13;;;;;;;3.67;3.10;;;25.80;41.30;;;;;;4954381;29;20382;-45
2021/06/26 09:16:40;;;;;;;2.85;2.65;;;25.80;41.30;;;;;;4954285;29;20685;-44
2021/06/26 09:19:07;;;;;;;3.97;3.05;;;25.70;41.20;;;;;;4954690;29;20295;-48
2021/06/26 09:21:34;;;;;;;4.88;2.97;;;25.80;41.30;;;;;;4954730;28;20337;-44
2021/06/26 09:24:00;;;;;;;2.90;2.70;;;25.80;41.30;;;;;;4954851;29;20232;-44
2021/06/26 09:26:27;;;;;;;2.90;2.70;;;25.80;41.30;;;;;;4954222;29;20197;-46
2021/06/26 09:28:53;;;;;;;2.80;2.60;;;25.80;41.30;;;;;;4954732;29;20677;-44
2021/06/26 09:31:21;;;;;;;2.60;2.40;;;25.70;41.30;;;;;;4953198;28;20647;-45
2021/06/26 09:33:47;;;;;;;3.15;2.90;;;25.80;41.30;;;;;;4954930;28;20343;-46
2021/06/26 09:36:13;;;;;;;4.13;2.55;;;25.70;42.30;;;;;;4953384;28;20232;-44
2021/06/26 09:38:40;;;;;;;4.60;2.90;;;25.80;41.60;;;;;;4959849;28;20292;-46
2021/06/26 09:41:06;;;;;;;2.85;2.58;;;25.80;41.50;;;;;;4952110;28;20651;-44
2021/06/26 09:43:33;;;;;;;2.92;2.70;;;25.80;41.40;;;;;;4951466;28;20579;-47
2021/06/26 09:45:59;;;;;;;4.07;2.75;;;25.80;41.30;;;;;;4950689;28;20202;-45
2021/06/26 09:48:26;;;;;;;2.65;2.40;;;25.80;41.20;;;;;;4954896;28;20288;-44
2021/06/26 09:50:52;;;;;;;3.13;2.83;;;25.80;41.80;;;;;;4953841;28;20221;-44
2021/06/26 09:53:19;;;;;;;5.82;2.70;;;25.80;41.80;;;;;;4952373;29;20576;-44
2021/06/26 09:55:48;;;;;;;3.22;2.92;;;25.80;41.50;;;;;;4953035;29;20239;-43
2021/06/26 09:58:15;;;;;;;3.00;2.70;;;25.80;41.50;;;;;;4954191;28;20201;-44
2021/06/26 10:00:42;;;;;;;2.90;2.67;;;25.80;41.50;;;;;;4954427;28;20276;-45
2021/06/26 10:03:09;;;;;;;2.75;2.53;;;25.80;41.50;;;;;;4953873;29;20245;-44
2021/06/26 10:05:35;;;;;;;3.03;2.70;;;25.80;41.50;;;;;;4952534;28;20347;-46
2021/06/26 10:08:01;;;;;;;3.50;2.63;;;25.80;41.60;;;;;;4945821;29;20272;-45
2021/06/26 10:10:28;;;;;;;2.78;2.45;;;25.80;41.60;;;;;;4953891;28;20236;-45
2021/06/26 10:12:55;;;;;;;2.97;2.58;;;25.80;41.60;;;;;;4954163;29;20205;-44
2021/06/26 10:15:21;;;;;;;3.58;2.67;;;25.80;41.60;;;;;;4953404;29;20205;-46
2021/06/26 10:17:49;;;;;;;4.35;3.22;;;25.80;41.80;;;;;;4952874;29;20224;-44
2021/06/26 10:20:17;;;;;;;3.80;2.42;;;25.80;41.60;;;;;;4953286;29;20224;-45
2021/06/26 10:22:43;;;;;;;3.17;2.88;;;25.80;41.50;;;;;;4953742;29;20263;-44
2021/06/26 10:25:10;;;;;;;2.70;2.50;;;25.80;41.60;;;;;;4953437;29;20320;-46
2021/06/26 10:27:36;;;;;;;3.00;2.80;;;25.80;41.60;;;;;;4950021;28;20241;-50
2021/06/26 10:30:03;;;;;;;2.90;2.67;;;25.80;41.60;;;;;;4952707;28;20252;-44
2021/06/26 10:32:29;;;;;;;3.00;2.60;;;25.80;41.50;;;;;;4953332;28;20206;-46
2021/06/26 10:34:58;;;;;;;2.83;2.50;;;25.80;41.50;;;;;;4959090;28;20203;-49
2021/06/26 10:37:25;;;;;;;2.60;2.40;;;25.80;41.50;;;;;;4957359;28;20283;-47
2021/06/26 10:39:52;;;;;;;3.58;3.20;;;25.80;41.30;;;;;;4949971;28;20642;-45
2021/06/26 10:42:18;;;;;;;3.05;2.63;;;25.80;40.80;;;;;;4950221;28;20300;-44
2021/06/26 10:44:45;;;;;;;3.25;2.70;;;25.80;40.50;;;;;;4953705;28;20227;-44
2021/06/26 10:47:11;;;;;;;3.10;2.75;;;25.80;40.10;;;;;;4950426;28;20280;-45
2021/06/26 10:49:38;;;;;;;2.75;2.47;;;25.80;39.90;;;;;;4951140;28;20217;-44
2021/06/26 10:52:04;;;;;;;4.88;3.10;;;25.80;39.50;;;;;;4954549;28;20215;-45
2021/06/26 10:54:30;;;;;;;4.35;2.80;;;25.80;39.50;;;;;;4955534;28;20288;-46
2021/06/26 10:56:57;;;;;;;2.80;2.60;;;25.80;39.50;;;;;;4951931;29;20236;-43
2021/06/26 10:59:23;;;;;;;3.10;2.67;;;25.80;39.50;;;;;;4951072;28;20321;-44
2021/06/26 11:01:50;;;;;;;3.08;2.78;;;25.80;39.50;;;;;;4951175;28;20293;-43
2021/06/26 11:04:16;;;;;;;3.00;2.70;;;25.80;39.40;;;;;;4952843;28;20232;-44
2021/06/26 11:06:43;;;;;;;2.83;2.63;;;25.80;39.10;;;;;;4950810;28;20212;-50
2021/06/26 11:09:09;;;;;;;2.60;2.40;;;25.80;39.50;;;;;;4960163;28;20662;-44
2021/06/26 11:11:36;;;;;;;3.45;2.65;;;25.80;39.50;;;;;;4957323;28;20224;-49
2021/06/26 11:14:02;;;;;;;3.10;2.80;;;25.80;39.50;;;;;;4952786;28;20205;-49
2021/06/26 11:16:29;;;;;;;3.22;2.83;;;25.80;39.50;;;;;;4950976;28;20569;-46
2021/06/26 11:18:55;;;;;;;4.65;2.58;;;25.80;39.80;;;;;;4957926;28;20283;-45
2021/06/26 11:21:22;;;;;;;3.05;2.75;;;25.80;40.00;;;;;;4961166;28;20662;-46
2021/06/26 11:23:48;;;;;;;2.78;2.58;;;25.80;40.10;;;;;;4956673;28;20679;-45
2021/06/26 11:26:14;;;;;;;3.35;2.88;;;25.80;40.00;;;;;;4950065;28;20741;-45
2021/06/26 11:28:41;;;;;;;4.00;2.45;;;25.80;39.70;;;;;;4953696;28;20292;-46
2021/06/26 11:31:08;;;;;;;2.70;2.50;;;25.80;39.50;;;;;;4954951;28;20197;-44
2021/06/26 11:33:35;;;;;;;2.80;2.50;;;25.80;39.50;;;;;;4952220;29;20289;-46
2021/06/26 11:36:01;;;;;;;2.90;2.60;;;25.80;39.50;;;;;;4951493;29;20212;-46
2021/06/26 11:38:28;;;;;;;3.20;2.47;;;25.80;39.80;;;;;;4952233;28;20204;-45
2021/06/26 11:40:54;;;;;;;4.45;2.85;;;25.80;40.00;;;;;;4952860;28;20232;-46
2021/06/26 11:43:21;;;;;;;6.53;3.97;;;25.80;40.20;;;;;;4955006;28;20212;-46
2021/06/26 11:45:47;;;;;;;18.80;7.85;;;25.80;40.40;;;;;;4950816;28;20327;-45
2021/06/26 11:48:14;;;;;;;21.92;9.50;;;25.80;40.60;;;;;;4951853;28;20248;-48
2021/06/26 11:50:40;;;;;;;30.48;11.88;;;25.90;40.80;;;;;;4951854;28;20421;-52
2021/06/26 11:53:07;;;;;;;37.58;12.18;;;25.80;40.80;;;;;;4951970;29;20233;-46
2021/06/26 11:55:33;;;;;;;32.17;12.43;;;25.80;40.70;;;;;;4950576;28;20304;-50
2021/06/26 11:58:00;;;;;;;32.45;12.73;;;25.80;40.60;;;;;;4953241;28;20209;-50
2021/06/26 12:00:26;;;;;;;30.30;10.82;;;25.80;40.60;;;;;;4960072;28;20363;-48
2021/06/26 12:02:53;;;;;;;30.05;12.05;;;25.90;40.50;;;;;;4953998;28;20209;-49
2021/06/26 12:05:19;;;;;;;27.80;11.70;;;25.80;40.60;;;;;;4956014;28;20316;-46
2021/06/26 12:07:46;;;;;;;23.35;10.40;;;25.80;40.70;;;;;;4959473;28;20201;-49
2021/06/26 12:10:13;;;;;;;16.70;9.63;;;25.90;40.50;;;;;;4956682;29;20221;-43
2021/06/26 12:12:39;;;;;;;26.10;9.48;;;25.90;40.40;;;;;;4956645;29;20666;-44
2021/06/26 12:15:06;;;;;;;15.32;7.45;;;25.80;40.30;;;;;;4956927;29;20292;-45
2021/06/26 12:17:32;;;;;;;18.40;8.05;;;25.80;40.00;;;;;;4956707;29;20300;-44
2021/06/26 12:19:59;;;;;;;15.80;6.88;;;25.90;40.00;;;;;;4955263;28;20261;-44
2021/06/26 12:22:27;;;;;;;14.88;6.40;;;25.90;39.70;;;;;;4964102;28;20194;-44
2021/06/26 12:24:54;;;;;;;12.75;6.20;;;25.80;39.50;;;;;;4955184;29;20732;-46
2021/06/26 12:27:21;;;;;;;12.90;6.05;;;25.80;39.50;;;;;;4955392;29;20558;-46
2021/06/26 12:29:47;;;;;;;9.55;5.50;;;25.90;39.60;;;;;;4956788;28;20278;-44
2021/06/26 12:32:14;;;;;;;9.48;5.05;;;25.80;39.50;;;;;;4954053;28;20212;-43
2021/06/26 12:34:40;;;;;;;12.32;5.97;;;25.90;39.60;;;;;;4957413;28;20704;-44
2021/06/26 12:37:06;;;;;;;13.48;4.40;;;25.90;40.00;;;;;;4961951;28;20744;-44
2021/06/26 12:39:35;;;;;;;5.70;3.88;;;25.90;39.10;;;;;;4954391;28;20328;-44
2021/06/26 12:42:01;;;;;;;5.57;3.30;;;25.80;38.20;;;;;;4955277;29;20236;-44